sensor_id;sensor_type;location;lat;lon;timestamp;pressure;altitude;pressure_sealevel;temperature;humidity
85224;BME280;75619;51.316;4.824;2024-03-29T00:00:56;98820.53;;;9.04;100.00
85224;BME280;75619;51.316;4.824;2024-03-29T00:03:22;98830.75;;;9.07;100.00
85224;BME280;75619;51.316;4.824;2024-03-29T00:05:48;98826.09;;;9.01;100.00
85224;BME280;75619;51.316;4.824;2024-03-29T00:08:14;98822.50;;;9.02;100.00
85224;BME280;75619;51.316;4.824;2024-03-29T00:10:39;98829.19;;;8.96;100.00
85224;BME280;75619;51.316;4.824;2024-03-29T00:13:05;98842.50;;;8.95;100.00
85224;BME280;75619;51.316;4.824;2024-03-29T00:15:34;98849.34;;;8.88;100.00
85224;BME280;75619;51.316;4.824;2024-03-29T00:18:00;98842.38;;;8.79;100.00
85224;BME280;75619;51.316;4.824;2024-03-29T00:20:25;98846.31;;;8.75;100.00
85224;BME280;75619;51.316;4.824;2024-03-29T00:22:51;98857.97;;;8.72;100.00
85224;BME280;75619;51.316;4.824;2024-03-29T00:25:17;98853.13;;;8.68;100.00
85224;BME280;75619;51.316;4.824;2024-03-29T00:27:42;98858.00;;;8.63;100.00
85224;BME280;75619;51.316;4.824;2024-03-29T00:30:11;98860.81;;;8.61;100.00
85224;BME280;75619;51.316;4.824;2024-03-29T00:32:37;98856.97;;;8.56;100.00
85224;BME280;75619;51.316;4.824;2024-03-29T00:35:03;98865.41;;;8.59;100.00
85224;BME280;75619;51.316;4.824;2024-03-29T00:37:28;98862.09;;;8.57;100.00
85224;BME280;75619;51.316;4.824;2024-03-29T00:39:54;98856.13;;;8.55;100.00
85224;BME280;75619;51.316;4.824;2024-03-29T00:42:20;98865.72;;;8.56;100.00
85224;BME280;75619;51.316;4.824;2024-03-29T00:44:47;98859.97;;;8.61;100.00
85224;BME280;75619;51.316;4.824;2024-03-29T00:47:12;98864.56;;;8.59;100.00
85224;BME280;75619;51.316;4.824;2024-03-29T00:49:39;98870.16;;;8.56;100.00
85224;BME280;75619;51.316;4.824;2024-03-29T00:52:05;98868.03;;;8.59;100.00
85224;BME280;75619;51.316;4.824;2024-03-29T00:54:31;98878.31;;;8.53;100.00
85224;BME280;75619;51.316;4.824;2024-03-29T00:56:57;98877.72;;;8.59;100.00
85224;BME280;75619;51.316;4.824;2024-03-29T00:59:23;98878.72;;;8.58;100.00
85224;BME280;75619;51.316;4.824;2024-03-29T01:01:49;98886.91;;;8.55;100.00
85224;BME280;75619;51.316;4.824;2024-03-29T01:04:15;98876.69;;;8.52;100.00
85224;BME280;75619;51.316;4.824;2024-03-29T01:06:41;98873.66;;;8.47;100.00
85224;BME280;75619;51.316;4.824;2024-03-29T01:09:08;98875.56;;;8.54;100.00
85224;BME280;75619;51.316;4.824;2024-03-29T01:11:40;98866.63;;;8.65;100.00
85224;BME280;75619;51.316;4.824;2024-03-29T01:14:06;98867.59;;;8.64;100.00
85224;BME280;75619;51.316;4.824;2024-03-29T01:16:32;98858.41;;;8.68;100.00
85224;BME280;75619;51.316;4.824;2024-03-29T01:18:58;98856.59;;;8.68;100.00
85224;BME280;75619;51.316;4.824;2024-03-29T01:21:26;98858.41;;;8.68;100.00
85224;BME280;75619;51.316;4.824;2024-03-29T01:23:52;98852.53;;;8.74;100.00
85224;BME280;75619;51.316;4.824;2024-03-29T01:26:18;98852.25;;;8.77;100.00
85224;BME280;75619;51.316;4.824;2024-03-29T01:28:44;98859.31;;;8.76;100.00
85224;BME280;75619;51.316;4.824;2024-03-29T01:31:10;98838.53;;;8.73;100.00
85224;BME280;75619;51.316;4.824;2024-03-29T01:33:36;98834.69;;;8.68;100.00
85224;BME280;75619;51.316;4.824;2024-03-29T01:36:09;98828.59;;;8.67;100.00
85224;BME280;75619;51.316;4.824;2024-03-29T01:38:34;98821.16;;;8.63;100.00
85224;BME280;75619;51.316;4.824;2024-03-29T01:41:00;98822.75;;;8.56;100.00
85224;BME280;75619;51.316;4.824;2024-03-29T01:43:26;98833.28;;;8.56;100.00
85224;BME280;75619;51.316;4.824;2024-03-29T01:45:55;98836.06;;;8.54;100.00
85224;BME280;75619;51.316;4.824;2024-03-29T01:48:22;98825.66;;;8.53;100.00
85224;BME280;75619;51.316;4.824;2024-03-29T01:50:49;98823.25;;;8.59;100.00
85224;BME280;75619;51.316;4.824;2024-03-29T01:53:16;98814.84;;;8.56;100.00
85224;BME280;75619;51.316;4.824;2024-03-29T01:55:43;98822.44;;;8.59;100.00
85224;BME280;75619;51.316;4.824;2024-03-29T01:58:09;98825.72;;;8.61;100.00
85224;BME280;75619;51.316;4.824;2024-03-29T02:00:38;98826.41;;;8.63;100.00
85224;BME280;75619;51.316;4.824;2024-03-29T02:03:07;98830.56;;;8.65;100.00
85224;BME280;75619;51.316;4.824;2024-03-29T02:05:43;98842.31;;;8.71;100.00
85224;BME280;75619;51.316;4.824;2024-03-29T02:08:09;98829.28;;;8.69;100.00
85224;BME280;75619;51.316;4.824;2024-03-29T02:10:36;98844.63;;;8.74;100.00
85224;BME280;75619;51.316;4.824;2024-03-29T02:13:02;98846.34;;;9.01;100.00
85224;BME280;75619;51.316;4.824;2024-03-29T02:15:29;98841.75;;;9.03;100.00
85224;BME280;75619;51.316;4.824;2024-03-29T02:17:55;98849.66;;;9.03;100.00
85224;BME280;75619;51.316;4.824;2024-03-29T02:20:21;98860.13;;;9.12;100.00
85224;BME280;75619;51.316;4.824;2024-03-29T02:23:02;98843.81;;;9.17;100.00
85224;BME280;75619;51.316;4.824;2024-03-29T02:25:31;98853.22;;;9.19;100.00
85224;BME280;75619;51.316;4.824;2024-03-29T02:27:58;98866.84;;;9.32;100.00
85224;BME280;75619;51.316;4.824;2024-03-29T02:30:25;98870.72;;;9.46;100.00
85224;BME280;75619;51.316;4.824;2024-03-29T02:32:51;98866.59;;;9.43;100.00
85224;BME280;75619;51.316;4.824;2024-03-29T02:35:16;98856.84;;;9.44;100.00
85224;BME280;75619;51.316;4.824;2024-03-29T02:37:42;98855.28;;;9.51;100.00
85224;BME280;75619;51.316;4.824;2024-03-29T02:40:08;98850.97;;;9.50;100.00
85224;BME280;75619;51.316;4.824;2024-03-29T02:42:34;98850.16;;;9.49;100.00
85224;BME280;75619;51.316;4.824;2024-03-29T02:45:02;98849.50;;;9.47;100.00
85224;BME280;75619;51.316;4.824;2024-03-29T02:47:28;98847.16;;;9.44;100.00
85224;BME280;75619;51.316;4.824;2024-03-29T02:49:53;98861.22;;;9.53;100.00
85224;BME280;75619;51.316;4.824;2024-03-29T02:52:19;98859.41;;;9.53;100.00
85224;BME280;75619;51.316;4.824;2024-03-29T02:54:45;98856.72;;;9.45;100.00
85224;BME280;75619;51.316;4.824;2024-03-29T02:57:11;98857.69;;;9.44;100.00
85224;BME280;75619;51.316;4.824;2024-03-29T02:59:36;98866.75;;;9.42;100.00
85224;BME280;75619;51.316;4.824;2024-03-29T03:02:02;98875.66;;;9.41;100.00
85224;BME280;75619;51.316;4.824;2024-03-29T03:04:28;98876.56;;;9.32;100.00
85224;BME280;75619;51.316;4.824;2024-03-29T03:06:53;98878.13;;;9.42;100.00
85224;BME280;75619;51.316;4.824;2024-03-29T03:09:21;98878.34;;;9.31;100.00
85224;BME280;75619;51.316;4.824;2024-03-29T03:12:06;98879.34;;;9.30;100.00
85224;BME280;75619;51.316;4.824;2024-03-29T03:14:31;98880.88;;;9.33;100.00
85224;BME280;75619;51.316;4.824;2024-03-29T03:16:57;98871.59;;;9.29;100.00
85224;BME280;75619;51.316;4.824;2024-03-29T03:19:23;98871.69;;;9.19;100.00
85224;BME280;75619;51.316;4.824;2024-03-29T03:21:50;98883.16;;;9.10;100.00
85224;BME280;75619;51.316;4.824;2024-03-29T03:24:16;98875.19;;;9.02;100.00
85224;BME280;75619;51.316;4.824;2024-03-29T03:26:41;98881.44;;;9.01;100.00
85224;BME280;75619;51.316;4.824;2024-03-29T03:29:07;98890.16;;;9.02;100.00
85224;BME280;75619;51.316;4.824;2024-03-29T03:31:34;98902.34;;;9.03;100.00
85224;BME280;75619;51.316;4.824;2024-03-29T03:34:00;98896.84;;;8.96;100.00
85224;BME280;75619;51.316;4.824;2024-03-29T03:36:26;98905.25;;;8.91;100.00
85224;BME280;75619;51.316;4.824;2024-03-29T03:38:51;98910.78;;;8.88;100.00
85224;BME280;75619;51.316;4.824;2024-03-29T03:41:17;98896.34;;;8.75;100.00
85224;BME280;75619;51.316;4.824;2024-03-29T03:43:43;98897.63;;;8.71;100.00
85224;BME280;75619;51.316;4.824;2024-03-29T03:46:08;98906.66;;;8.68;100.00
85224;BME280;75619;51.316;4.824;2024-03-29T03:48:34;98922.13;;;8.54;100.00
85224;BME280;75619;51.316;4.824;2024-03-29T03:51:00;98935.66;;;8.41;100.00
85224;BME280;75619;51.316;4.824;2024-03-29T03:53:25;98941.34;;;8.37;100.00
85224;BME280;75619;51.316;4.824;2024-03-29T03:55:51;98942.94;;;8.30;100.00
85224;BME280;75619;51.316;4.824;2024-03-29T03:58:17;98945.00;;;8.26;100.00
85224;BME280;75619;51.316;4.824;2024-03-29T04:00:43;98946.66;;;8.17;100.00
85224;BME280;75619;51.316;4.824;2024-03-29T04:03:08;98962.34;;;8.09;100.00
85224;BME280;75619;51.316;4.824;2024-03-29T04:05:37;98960.19;;;7.95;100.00
85224;BME280;75619;51.316;4.824;2024-03-29T04:08:03;98955.66;;;7.78;100.00
85224;BME280;75619;51.316;4.824;2024-03-29T04:10:29;98951.38;;;7.77;100.00
85224;BME280;75619;51.316;4.824;2024-03-29T04:12:54;98961.22;;;7.66;100.00
85224;BME280;75619;51.316;4.824;2024-03-29T04:15:20;98954.47;;;7.63;100.00
85224;BME280;75619;51.316;4.824;2024-03-29T04:17:46;98944.78;;;7.54;100.00
85224;BME280;75619;51.316;4.824;2024-03-29T04:20:11;98962.50;;;7.52;100.00
85224;BME280;75619;51.316;4.824;2024-03-29T04:22:37;98964.03;;;7.45;100.00
85224;BME280;75619;51.316;4.824;2024-03-29T04:25:03;98960.16;;;7.40;100.00
85224;BME280;75619;51.316;4.824;2024-03-29T04:27:29;98976.06;;;7.28;100.00
85224;BME280;75619;51.316;4.824;2024-03-29T04:29:54;98968.63;;;7.24;100.00
85224;BME280;75619;51.316;4.824;2024-03-29T04:32:20;98978.88;;;7.17;100.00
85224;BME280;75619;51.316;4.824;2024-03-29T04:34:50;98980.50;;;7.18;100.00
85224;BME280;75619;51.316;4.824;2024-03-29T04:37:16;98971.53;;;7.21;100.00
85224;BME280;75619;51.316;4.824;2024-03-29T04:39:43;98969.84;;;7.10;100.00
85224;BME280;75619;51.316;4.824;2024-03-29T04:42:10;98983.41;;;7.06;100.00
85224;BME280;75619;51.316;4.824;2024-03-29T04:44:36;98970.97;;;7.08;100.00
85224;BME280;75619;51.316;4.824;2024-03-29T04:47:02;98980.53;;;6.99;100.00
85224;BME280;75619;51.316;4.824;2024-03-29T04:49:28;98976.22;;;6.98;100.00
85224;BME280;75619;51.316;4.824;2024-03-29T04:51:59;98970.41;;;6.95;100.00
85224;BME280;75619;51.316;4.824;2024-03-29T04:54:26;98976.06;;;7.00;100.00
85224;BME280;75619;51.316;4.824;2024-03-29T04:56:52;98985.88;;;6.98;100.00
85224;BME280;75619;51.316;4.824;2024-03-29T04:59:18;98990.31;;;6.97;100.00
85224;BME280;75619;51.316;4.824;2024-03-29T05:01:45;98979.69;;;6.99;100.00
85224;BME280;75619;51.316;4.824;2024-03-29T05:04:16;98986.03;;;6.96;100.00
85224;BME280;75619;51.316;4.824;2024-03-29T05:06:44;98996.53;;;6.96;100.00
85224;BME280;75619;51.316;4.824;2024-03-29T05:09:11;98993.38;;;6.93;100.00
85224;BME280;75619;51.316;4.824;2024-03-29T05:11:39;98992.38;;;6.94;100.00
85224;BME280;75619;51.316;4.824;2024-03-29T05:14:05;99005.38;;;6.95;100.00
85224;BME280;75619;51.316;4.824;2024-03-29T05:16:31;98994.06;;;6.95;100.00
85224;BME280;75619;51.316;4.824;2024-03-29T05:18:57;98989.06;;;6.92;100.00
85224;BME280;75619;51.316;4.824;2024-03-29T05:21:23;98996.66;;;6.85;100.00
85224;BME280;75619;51.316;4.824;2024-03-29T05:23:48;98984.66;;;6.83;100.00
85224;BME280;75619;51.316;4.824;2024-03-29T05:26:14;98995.00;;;6.84;100.00
85224;BME280;75619;51.316;4.824;2024-03-29T05:28:39;98995.97;;;6.83;100.00
85224;BME280;75619;51.316;4.824;2024-03-29T05:31:13;99000.41;;;6.83;100.00
85224;BME280;75619;51.316;4.824;2024-03-29T05:33:40;99001.59;;;6.79;100.00
85224;BME280;75619;51.316;4.824;2024-03-29T05:36:06;99020.00;;;6.79;100.00
85224;BME280;75619;51.316;4.824;2024-03-29T05:38:34;99015.56;;;6.79;100.00
85224;BME280;75619;51.316;4.824;2024-03-29T05:40:59;99016.84;;;6.85;100.00
85224;BME280;75619;51.316;4.824;2024-03-29T05:43:25;99025.81;;;6.82;100.00
85224;BME280;75619;51.316;4.824;2024-03-29T05:45:54;99026.53;;;6.84;100.00
85224;BME280;75619;51.316;4.824;2024-03-29T05:48:19;99025.94;;;6.81;100.00
85224;BME280;75619;51.316;4.824;2024-03-29T05:50:45;99022.34;;;6.82;100.00
85224;BME280;75619;51.316;4.824;2024-03-29T05:53:11;99028.06;;;6.87;100.00
85224;BME280;75619;51.316;4.824;2024-03-29T05:55:37;99042.97;;;6.86;100.00
85224;BME280;75619;51.316;4.824;2024-03-29T05:58:02;99053.34;;;6.88;100.00
85224;BME280;75619;51.316;4.824;2024-03-29T06:00:28;99050.47;;;6.91;100.00
85224;BME280;75619;51.316;4.824;2024-03-29T06:02:54;99046.44;;;6.96;100.00
85224;BME280;75619;51.316;4.824;2024-03-29T06:05:20;99047.53;;;6.94;100.00
85224;BME280;75619;51.316;4.824;2024-03-29T06:07:46;99055.56;;;7.02;100.00
85224;BME280;75619;51.316;4.824;2024-03-29T06:10:12;99047.03;;;7.09;100.00
85224;BME280;75619;51.316;4.824;2024-03-29T06:12:38;99042.47;;;7.11;100.00
85224;BME280;75619;51.316;4.824;2024-03-29T06:15:05;99045.34;;;7.08;100.00
85224;BME280;75619;51.316;4.824;2024-03-29T06:17:50;99054.47;;;7.14;100.00
85224;BME280;75619;51.316;4.824;2024-03-29T06:20:16;99048.97;;;7.07;100.00
85224;BME280;75619;51.316;4.824;2024-03-29T06:22:42;99049.50;;;7.11;100.00
85224;BME280;75619;51.316;4.824;2024-03-29T06:25:08;99041.78;;;7.19;100.00
85224;BME280;75619;51.316;4.824;2024-03-29T06:27:36;99037.22;;;7.30;100.00
85224;BME280;75619;51.316;4.824;2024-03-29T06:30:02;99033.78;;;7.40;100.00
85224;BME280;75619;51.316;4.824;2024-03-29T06:32:30;99029.75;;;7.45;100.00
85224;BME280;75619;51.316;4.824;2024-03-29T06:34:56;99034.59;;;7.50;100.00
85224;BME280;75619;51.316;4.824;2024-03-29T06:37:22;99017.72;;;7.43;100.00
85224;BME280;75619;51.316;4.824;2024-03-29T06:39:48;99006.09;;;7.45;100.00
85224;BME280;75619;51.316;4.824;2024-03-29T06:42:14;99007.34;;;7.41;100.00
85224;BME280;75619;51.316;4.824;2024-03-29T06:44:39;99011.91;;;7.49;100.00
85224;BME280;75619;51.316;4.824;2024-03-29T06:47:06;99027.25;;;7.53;100.00
85224;BME280;75619;51.316;4.824;2024-03-29T06:49:32;99020.50;;;7.51;100.00
85224;BME280;75619;51.316;4.824;2024-03-29T06:51:58;99033.91;;;7.57;100.00
85224;BME280;75619;51.316;4.824;2024-03-29T06:54:27;99030.72;;;7.63;100.00
85224;BME280;75619;51.316;4.824;2024-03-29T06:56:53;99031.97;;;7.69;100.00
85224;BME280;75619;51.316;4.824;2024-03-29T06:59:19;99036.41;;;7.78;100.00
85224;BME280;75619;51.316;4.824;2024-03-29T07:01:45;99037.50;;;7.75;100.00
85224;BME280;75619;51.316;4.824;2024-03-29T07:04:15;99030.53;;;7.93;100.00
85224;BME280;75619;51.316;4.824;2024-03-29T07:06:41;99025.63;;;8.17;100.00
85224;BME280;75619;51.316;4.824;2024-03-29T07:09:10;99021.13;;;8.47;100.00
85224;BME280;75619;51.316;4.824;2024-03-29T07:11:36;99021.72;;;8.68;100.00
85224;BME280;75619;51.316;4.824;2024-03-29T07:14:01;99028.19;;;8.73;100.00
85224;BME280;75619;51.316;4.824;2024-03-29T07:16:27;99034.56;;;8.98;100.00
85224;BME280;75619;51.316;4.824;2024-03-29T07:18:53;99034.13;;;9.03;100.00
85224;BME280;75619;51.316;4.824;2024-03-29T07:21:18;99023.59;;;9.03;100.00
85224;BME280;75619;51.316;4.824;2024-03-29T07:23:44;99000.97;;;8.82;100.00
85224;BME280;75619;51.316;4.824;2024-03-29T07:26:09;99003.97;;;8.70;100.00
85224;BME280;75619;51.316;4.824;2024-03-29T07:28:36;99017.53;;;8.75;100.00
85224;BME280;75619;51.316;4.824;2024-03-29T07:31:06;99014.59;;;8.51;100.00
85224;BME280;75619;51.316;4.824;2024-03-29T07:33:33;99021.69;;;8.50;100.00
85224;BME280;75619;51.316;4.824;2024-03-29T07:35:58;99022.91;;;8.46;100.00
85224;BME280;75619;51.316;4.824;2024-03-29T07:38:24;99036.59;;;8.59;100.00
85224;BME280;75619;51.316;4.824;2024-03-29T07:40:51;99029.13;;;8.55;100.00
85224;BME280;75619;51.316;4.824;2024-03-29T07:43:21;99013.28;;;8.64;100.00
85224;BME280;75619;51.316;4.824;2024-03-29T07:45:47;99009.53;;;8.67;100.00
85224;BME280;75619;51.316;4.824;2024-03-29T07:48:15;99012.94;;;8.77;100.00
85224;BME280;75619;51.316;4.824;2024-03-29T07:50:44;99007.38;;;8.80;100.00
85224;BME280;75619;51.316;4.824;2024-03-29T07:53:11;99009.50;;;8.94;100.00
85224;BME280;75619;51.316;4.824;2024-03-29T07:55:40;98995.63;;;8.92;100.00
85224;BME280;75619;51.316;4.824;2024-03-29T07:58:08;99009.59;;;9.02;100.00
85224;BME280;75619;51.316;4.824;2024-03-29T08:00:38;99018.63;;;9.17;100.00
85224;BME280;75619;51.316;4.824;2024-03-29T08:03:04;99018.72;;;9.25;100.00
85224;BME280;75619;51.316;4.824;2024-03-29T08:05:30;99007.78;;;9.38;100.00
85224;BME280;75619;51.316;4.824;2024-03-29T08:07:56;99009.09;;;9.51;100.00
85224;BME280;75619;51.316;4.824;2024-03-29T08:10:21;99010.34;;;9.65;100.00
85224;BME280;75619;51.316;4.824;2024-03-29T08:12:47;99004.66;;;9.77;100.00
85224;BME280;75619;51.316;4.824;2024-03-29T08:15:13;98996.22;;;10.00;100.00
85224;BME280;75619;51.316;4.824;2024-03-29T08:17:39;99007.16;;;10.05;100.00
85224;BME280;75619;51.316;4.824;2024-03-29T08:20:05;99002.63;;;10.15;100.00
85224;BME280;75619;51.316;4.824;2024-03-29T08:22:31;98992.75;;;10.17;100.00
85224;BME280;75619;51.316;4.824;2024-03-29T08:25:00;99007.28;;;10.46;100.00
85224;BME280;75619;51.316;4.824;2024-03-29T08:27:27;98993.97;;;10.64;100.00
85224;BME280;75619;51.316;4.824;2024-03-29T08:29:53;99010.19;;;10.77;100.00
85224;BME280;75619;51.316;4.824;2024-03-29T08:32:19;99008.88;;;10.73;100.00
85224;BME280;75619;51.316;4.824;2024-03-29T08:34:45;99017.41;;;10.59;100.00
85224;BME280;75619;51.316;4.824;2024-03-29T08:37:10;99026.91;;;10.44;100.00
85224;BME280;75619;51.316;4.824;2024-03-29T08:39:36;99036.03;;;10.24;100.00
85224;BME280;75619;51.316;4.824;2024-03-29T08:42:04;99048.22;;;9.99;100.00
85224;BME280;75619;51.316;4.824;2024-03-29T08:44:33;99052.16;;;9.95;100.00
85224;BME280;75619;51.316;4.824;2024-03-29T08:46:59;99036.16;;;9.97;100.00
85224;BME280;75619;51.316;4.824;2024-03-29T08:49:30;99030.88;;;9.97;100.00
85224;BME280;75619;51.316;4.824;2024-03-29T08:51:56;99030.25;;;10.28;100.00
85224;BME280;75619;51.316;4.824;2024-03-29T08:54:22;99020.50;;;10.54;100.00
85224;BME280;75619;51.316;4.824;2024-03-29T08:56:48;99020.50;;;10.96;100.00
85224;BME280;75619;51.316;4.824;2024-03-29T08:59:14;99020.09;;;11.25;100.00
85224;BME280;75619;51.316;4.824;2024-03-29T09:01:47;99017.91;;;11.12;100.00
85224;BME280;75619;51.316;4.824;2024-03-29T09:04:16;99021.88;;;11.08;100.00
85224;BME280;75619;51.316;4.824;2024-03-29T09:06:42;99032.16;;;11.27;100.00
85224;BME280;75619;51.316;4.824;2024-03-29T09:09:08;99030.03;;;11.63;100.00
85224;BME280;75619;51.316;4.824;2024-03-29T09:11:34;99030.59;;;11.67;100.00
85224;BME280;75619;51.316;4.824;2024-03-29T09:13:59;99028.41;;;11.78;100.00
85224;BME280;75619;51.316;4.824;2024-03-29T09:16:27;99023.91;;;12.11;100.00
85224;BME280;75619;51.316;4.824;2024-03-29T09:18:54;99025.56;;;12.28;100.00
85224;BME280;75619;51.316;4.824;2024-03-29T09:21:20;99031.03;;;12.10;100.00
85224;BME280;75619;51.316;4.824;2024-03-29T09:23:46;99049.84;;;12.40;100.00
85224;BME280;75619;51.316;4.824;2024-03-29T09:26:15;99041.84;;;12.64;100.00
85224;BME280;75619;51.316;4.824;2024-03-29T09:28:40;99040.00;;;12.64;100.00
85224;BME280;75619;51.316;4.824;2024-03-29T09:31:06;99044.34;;;13.04;100.00
85224;BME280;75619;51.316;4.824;2024-03-29T09:33:32;99051.81;;;12.62;100.00
85224;BME280;75619;51.316;4.824;2024-03-29T09:35:58;99057.88;;;12.78;100.00
85224;BME280;75619;51.316;4.824;2024-03-29T09:38:28;99049.56;;;12.81;100.00
85224;BME280;75619;51.316;4.824;2024-03-29T09:41:15;99049.38;;;12.83;100.00
85224;BME280;75619;51.316;4.824;2024-03-29T09:43:42;99082.09;;;12.67;100.00
85224;BME280;75619;51.316;4.824;2024-03-29T09:46:10;99070.16;;;12.71;100.00
85224;BME280;75619;51.316;4.824;2024-03-29T09:48:40;99068.31;;;12.80;100.00
85224;BME280;75619;51.316;4.824;2024-03-29T09:51:07;99063.28;;;12.93;100.00
85224;BME280;75619;51.316;4.824;2024-03-29T09:53:37;99057.19;;;12.84;100.00
85224;BME280;75619;51.316;4.824;2024-03-29T09:56:04;99059.69;;;12.78;100.00
85224;BME280;75619;51.316;4.824;2024-03-29T09:58:34;99051.69;;;12.86;100.00
85224;BME280;75619;51.316;4.824;2024-03-29T10:01:02;99048.13;;;13.01;100.00
85224;BME280;75619;51.316;4.824;2024-03-29T10:03:29;99033.63;;;13.28;100.00
85224;BME280;75619;51.316;4.824;2024-03-29T10:06:02;99029.19;;;13.43;100.00
85224;BME280;75619;51.316;4.824;2024-03-29T10:08:30;99042.84;;;13.40;100.00
85224;BME280;75619;51.316;4.824;2024-03-29T10:10:57;99050.50;;;13.05;100.00
85224;BME280;75619;51.316;4.824;2024-03-29T10:13:23;99059.00;;;13.23;100.00
85224;BME280;75619;51.316;4.824;2024-03-29T10:15:50;99062.53;;;12.76;100.00
85224;BME280;75619;51.316;4.824;2024-03-29T10:18:17;99062.81;;;12.81;100.00
85224;BME280;75619;51.316;4.824;2024-03-29T10:20:45;99065.41;;;12.97;100.00
85224;BME280;75619;51.316;4.824;2024-03-29T10:23:11;99072.13;;;13.16;100.00
85224;BME280;75619;51.316;4.824;2024-03-29T10:25:36;99060.38;;;13.19;100.00
85224;BME280;75619;51.316;4.824;2024-03-29T10:28:02;99066.84;;;13.16;100.00
85224;BME280;75619;51.316;4.824;2024-03-29T10:30:29;99074.97;;;13.15;100.00
85224;BME280;75619;51.316;4.824;2024-03-29T10:32:58;99069.44;;;13.24;100.00
85224;BME280;75619;51.316;4.824;2024-03-29T10:35:26;99066.31;;;13.74;100.00
85224;BME280;75619;51.316;4.824;2024-03-29T10:37:53;99052.28;;;14.25;100.00
85224;BME280;75619;51.316;4.824;2024-03-29T10:40:21;99065.69;;;14.61;100.00
85224;BME280;75619;51.316;4.824;2024-03-29T10:42:48;99077.53;;;14.88;100.00
85224;BME280;75619;51.316;4.824;2024-03-29T10:45:14;99072.84;;;14.90;100.00
85224;BME280;75619;51.316;4.824;2024-03-29T10:47:43;99075.34;;;14.77;100.00
85224;BME280;75619;51.316;4.824;2024-03-29T10:50:13;99088.88;;;14.15;100.00
85224;BME280;75619;51.316;4.824;2024-03-29T10:52:42;99088.88;;;13.47;100.00
85224;BME280;75619;51.316;4.824;2024-03-29T10:55:11;99089.41;;;13.43;100.00
85224;BME280;75619;51.316;4.824;2024-03-29T10:57:41;99083.75;;;13.46;100.00
85224;BME280;75619;51.316;4.824;2024-03-29T11:00:17;99063.66;;;13.74;100.00
85224;BME280;75619;51.316;4.824;2024-03-29T11:02:55;99058.31;;;13.97;100.00
85224;BME280;75619;51.316;4.824;2024-03-29T11:05:23;99046.09;;;14.47;100.00
85224;BME280;75619;51.316;4.824;2024-03-29T11:07:52;99034.44;;;14.78;100.00
85224;BME280;75619;51.316;4.824;2024-03-29T11:10:30;99030.03;;;14.70;100.00
85224;BME280;75619;51.316;4.824;2024-03-29T11:15:44;99045.44;;;14.75;100.00
85224;BME280;75619;51.316;4.824;2024-03-29T11:18:11;99050.13;;;14.87;100.00
85224;BME280;75619;51.316;4.824;2024-03-29T11:20:39;99060.94;;;14.71;100.00
85224;BME280;75619;51.316;4.824;2024-03-29T11:23:11;99058.19;;;14.94;100.00
85224;BME280;75619;51.316;4.824;2024-03-29T11:26:03;99066.38;;;15.28;100.00
85224;BME280;75619;51.316;4.824;2024-03-29T11:28:34;99070.69;;;15.44;100.00
85224;BME280;75619;51.316;4.824;2024-03-29T11:31:05;99063.56;;;15.65;100.00
85224;BME280;75619;51.316;4.824;2024-03-29T11:33:33;99056.34;;;15.80;100.00
85224;BME280;75619;51.316;4.824;2024-03-29T11:36:09;99065.69;;;15.97;100.00
85224;BME280;75619;51.316;4.824;2024-03-29T11:38:36;99060.91;;;15.86;100.00
85224;BME280;75619;51.316;4.824;2024-03-29T11:41:03;99075.75;;;15.74;100.00
85224;BME280;75619;51.316;4.824;2024-03-29T11:43:34;99076.47;;;15.32;100.00
85224;BME280;75619;51.316;4.824;2024-03-29T11:46:09;99080.56;;;15.14;100.00
85224;BME280;75619;51.316;4.824;2024-03-29T11:48:36;99083.88;;;14.87;100.00
85224;BME280;75619;51.316;4.824;2024-03-29T11:51:03;99087.63;;;14.63;100.00
85224;BME280;75619;51.316;4.824;2024-03-29T11:53:30;99095.88;;;14.68;100.00
85224;BME280;75619;51.316;4.824;2024-03-29T11:56:00;99091.94;;;14.79;100.00
85224;BME280;75619;51.316;4.824;2024-03-29T11:58:28;99088.47;;;14.93;100.00
85224;BME280;75619;51.316;4.824;2024-03-29T12:00:55;99071.13;;;14.82;100.00
85224;BME280;75619;51.316;4.824;2024-03-29T12:03:24;99069.06;;;15.13;100.00
85224;BME280;75619;51.316;4.824;2024-03-29T12:05:51;99067.97;;;15.22;100.00
85224;BME280;75619;51.316;4.824;2024-03-29T12:08:20;99078.38;;;15.53;100.00
85224;BME280;75619;51.316;4.824;2024-03-29T12:10:46;99080.09;;;15.61;100.00
85224;BME280;75619;51.316;4.824;2024-03-29T12:13:12;99083.47;;;15.90;100.00
85224;BME280;75619;51.316;4.824;2024-03-29T12:15:37;99076.81;;;15.80;100.00
85224;BME280;75619;51.316;4.824;2024-03-29T12:18:04;99062.44;;;16.02;100.00
85224;BME280;75619;51.316;4.824;2024-03-29T12:20:35;99073.44;;;16.13;100.00
85224;BME280;75619;51.316;4.824;2024-03-29T12:23:04;99070.03;;;15.77;100.00
85224;BME280;75619;51.316;4.824;2024-03-29T12:25:31;99076.88;;;15.86;100.00
85224;BME280;75619;51.316;4.824;2024-03-29T12:27:58;99075.78;;;15.81;100.00
85224;BME280;75619;51.316;4.824;2024-03-29T12:30:24;99084.97;;;16.20;100.00
85224;BME280;75619;51.316;4.824;2024-03-29T12:33:06;99087.19;;;16.17;100.00
85224;BME280;75619;51.316;4.824;2024-03-29T12:35:33;99079.91;;;16.04;100.00
85224;BME280;75619;51.316;4.824;2024-03-29T12:38:01;99078.44;;;16.02;100.00
85224;BME280;75619;51.316;4.824;2024-03-29T12:40:29;99091.19;;;15.85;100.00
85224;BME280;75619;51.316;4.824;2024-03-29T12:42:58;99082.16;;;16.01;100.00
85224;BME280;75619;51.316;4.824;2024-03-29T12:45:24;99075.50;;;16.18;100.00
85224;BME280;75619;51.316;4.824;2024-03-29T12:47:51;99071.22;;;16.45;100.00
85224;BME280;75619;51.316;4.824;2024-03-29T12:50:25;99083.47;;;16.39;100.00
85224;BME280;75619;51.316;4.824;2024-03-29T12:53:06;99084.66;;;16.30;100.00
85224;BME280;75619;51.316;4.824;2024-03-29T12:55:32;99082.91;;;16.44;100.00
85224;BME280;75619;51.316;4.824;2024-03-29T12:58:03;99078.28;;;16.52;100.00
85224;BME280;75619;51.316;4.824;2024-03-29T13:00:31;99087.84;;;16.47;100.00